Logo AVAMET
Benvolgut visitant, si us plau, ingressa Recuperar contrasenya
AVAMET paisatges

València Penya-roja

Dades diàries. Acumulats / Últims 30 dies disponibles

Data Temperatura (°C) Humitat rel. (%) Pressió rel. (hPa) Vent (km/h) Precipitació
Mínima Mitjana Màxima Amplitud
tèrmica
Mínima Mitjana Màxima Mínima Mitjana Màxima Predom. Mitjana Ràfega
màxima
Total
(mm)
Índex-n
Mínima Mitjana Màxima Mínima Mitjana Màxima n
0 a 1
P0 max
mm 5'
Dades mensuals acumulades fins l'últim dia disponible
07/2020 22,3 23,9 24,8 26,0 26,4 28,3 30,0 7,7 39 74 93 1.004 1.011 1.017   7,0 39,2 5,6
Dades anuals acumulades fins l'últim dia disponible
2020 4,7 14,7 24,8 17,8 9,3 21,4 31,6 26,9 15 69 99 992 1.013 1.029   8,3 102,0 304,1
Últims 30 dies disponibles
13-07-2020 22,3     25,4     28,3 6,0 58 74 86 1.011 1.013 1.015 ENE 6,2 30,6 0,8
12-07-2020 23,4     25,0     27,6 4,2 70 78 88 1.011 1.013 1.016 ENE 6,8 39,2 4,8 0,73 3,10
11-07-2020 24,0     25,9     28,0 4,0 63 77 89 1.010 1.012 1.014 ENE 7,9 33,1 0,0
10-07-2020 24,1     26,4     28,5 4,4 51 74 86 1.009 1.010 1.011 E 6,0 24,5 0,0
09-07-2020 24,3     26,4     29,3 5,0 54 74 87 1.009 1.011 1.012 E 6,2 24,5 0,0
08-07-2020 23,9     25,9     28,4 4,5 61 76 87 1.009 1.012 1.014 ESE 6,8 28,1 0,0
07-07-2020 24,5     26,6     28,3 3,8 61 72 79 1.009 1.010 1.012 ENE 7,4 35,6 0,0
06-07-2020 23,8     26,8     30,0 6,2 39 62 75 1.009 1.011 1.013 E 5,9 22,0 0,0
05-07-2020 23,5     25,8     28,4 4,9 61 73 79 1.012 1.015 1.017 ESE 6,9 31,7 0,0
04-07-2020 23,8     25,6     27,5 3,7 71 79 86 1.015 1.015 1.017 ESE 6,6 29,5 0,0
03-07-2020 24,8     25,5     26,4 1,6 62 74 82 1.010 1.013 1.016 E 10,2 33,1 0,0
02-07-2020 24,5     26,5     28,4 3,9 65 79 93 1.006 1.008 1.010 E 7,8 30,6 0,0
01-07-2020 23,3     26,2     29,1 5,8 61 76 86 1.004 1.006 1.008 ENE 6,8 29,5 0,0
30-06-2020 23,7     25,6     27,7 4,0 68 78 84 1.007 1.009 1.011 E 6,5 30,6 0,0
29-06-2020 22,6     25,3     27,4 4,8 70 79 88 1.009 1.011 1.012 E 6,3 28,1 0,0
28-06-2020 22,4     25,0     27,0 4,6 72 80 89 1.011 1.012 1.014 E 5,8 27,0 0,0
27-06-2020 22,7     25,2     28,6 5,9 47 71 84 1.009 1.010 1.012 ESE 6,5 29,5 0,0
26-06-2020 22,7     25,4     28,2 5,5 51 66 77 1.007 1.010 1.011 E 6,1 23,4 0,0
25-06-2020 21,7     25,1     28,2 6,5 41 66 76 1.009 1.011 1.013 ENE 6,7 25,6 0,0
24-06-2020 21,5     24,3     26,8 5,3 60 71 78 1.010 1.012 1.013 ESE 5,5 31,7 0,0
23-06-2020 22,7     24,5     26,7 4,0 58 75 84 1.012 1.013 1.015 E 7,7 29,5 0,0
22-06-2020 21,8     24,5     27,3 5,5 56 76 91 1.013 1.016 1.017 ESE 6,8 30,6 0,0
21-06-2020 21,0     23,6     25,7 4,7 72 81 90 1.014 1.016 1.017 E 5,0 24,5 0,0
20-06-2020 21,1     23,3     25,6 4,5 71 80 89 1.014 1.015 1.016 E 6,7 29,5 0,0
19-06-2020 20,1     22,5     24,7 4,6 70 81 94 1.011 1.013 1.016 E 8,2 29,5 1,0 0,20
18-06-2020 21,1     22,3     24,1 3,0 62 76 84 1.008 1.010 1.012 ENE 7,8 33,1 0,0
17-06-2020 19,6     21,7     23,5 3,9 65 75 82 1.009 1.010 1.012 E 7,4 34,2 0,0
16-06-2020 20,8     22,1     24,3 3,5 66 75 82 1.011 1.012 1.014 ENE 7,7 49,0 0,0
15-06-2020 20,0     22,6     26,2 6,2 40 69 86 1.013 1.014 1.015 ENE 7,4 28,1 0,0
14-06-2020 20,3     22,7     26,1 5,8 37 59 80 1.011 1.012 1.014 ESE 7,7 37,8 0,0
Últims 13 mesos disponibles
06/2020 16,2 20,3 23,7 23,2 20,2 26,2 31,3 15,1 33 69 81 1.000 1.009 1.016 ENE 8,3 64,8 24,9
05/2020 13,8 18,1 20,9 21,2 20,1 24,5 31,6 17,8 45 66 81 1.000 1.012 1.022 ENE 8,3 62,3 18,2
04/2020 10,5 13,9 18,4 16,6 16,0 19,7 26,3 15,8 41 74 94 999 1.010 1.020 ENE 7,3 62,3 43,6
03/2020 7,6 11,8 17,0 14,7 12,8 18,1 24,7 17,1 36 67 94 1.001 1.011 1.021 NE 10,8 102,0 55,6
02/2020 8,4 11,6 15,0 15,3 14,9 20,4 27,5 19,1 42 68 89 1.007 1.019 1.027 NW 6,8 60,1 1,8
01/2020 4,7 8,9 15,5 12,2 9,3 16,7 22,3 17,6 50 70 90 1.010 1.019 1.026 NW 8,8 72,4 154,4
12/2019 7,4 11,9 18,5 14,7 13,8 18,6 24,8 17,4 47 66 92 996 1.013 1.027 NW 11,8 104,0 84,8
11/2019 6,4 13,0 21,4 16,3 15,8 20,3 29,1 22,7 36 52 76 992 1.004 1.012 NW 15,4 76,0 4,7
10/2019 12,7 17,4 21,7 20,9 17,6 25,6 35,1 22,4 40 65 80 1.002 1.010 1.016 WNW 7,0 56,2 24,3
09/2019 16,1 21,2 24,4 24,3 21,5 27,5 33,8 17,7 37 70 82 1.004 1.011 1.018 NE 7,9 72,4 129,5
08/2019 19,3 23,7 27,3 26,6 27,0 29,7 40,9 21,6 47 70 82 1.004 1.010 1.014 ENE 7,3 62,3 4,1
07/2019 15,5 23,8 26,6 26,8 27,4 29,6 35,5 20,0 51 68 79 999 1.008 1.015 E 7,5 57,6 3,9
06/2019 15,0 19,5 24,0 22,6 20,4 25,8 33,3 18,3 38 66 81 1.002 1.009 1.016 ENE 7,7 72,4 0,0
Tots els anys disponibles
2019 2,7 15,6 27,3 18,9 13,2 22,8 40,9 38,2 27 63 96 988 1.011 1.028 NW 9,1 104,0 353,2
2018 3,9 15,9 26,6 18,9 9,3 22,5 35,6 31,7 33 64 96 992 1.014 1.035 E 9,1 92,9 720,1
2017 2,4 15,8 26,3 19,0 10,2 22,6 36,1 33,7 52 63 71 1.016 1.019 1.023 N 8,4 90,7 321,7
2016 4,3 16,2 26,7 19,0 11,4 23,2 35,8 31,5 51 65 74 1.015 1.019 1.031 N 8,3 100,0 601,3
Temperatura (°C)
Humitat relativa (%)
Velocitat del vent i ràfega màxima (km/h)
Direcció del vent (°)
Precipitació (mm)
Nota sobre les dades: s'avisa a l'usuari de la provisionalitat i no oficialitat d'aquestes dades
Logo AVAMET blanc
Web allotjada a Sollutia
Llicència de Creative CommonsLa web d'AVAMET i els seus continguts estan subjectes a una llicència de
Reconeixement - No Comercial - Compartir igual
Últimes estacions: Vilamarxant - La Pedrera (Soci), Càlig (Ajuntament Soci), Quesa - Hotel La Rocha (Soci), Agres - Les Eres (Soci), la Vilavella - Ptda Forns (Soci), Miramar - Platja (Inforatge), San Fulgencio - Centre & San Fulgencio - Urb. La Marina (MeteOrihuela), Ontinyent - els Gínjols (Soci), Orba (Aj. Soci) - - -